sensor_id;sensor_type;location;lat;lon;timestamp;temperature;humidity
7143;DHT22;3613;48.902;9.204;2024-02-16T00:00:28;9.10;99.90
7143;DHT22;3613;48.902;9.204;2024-02-16T00:02:54;9.20;99.90
7143;DHT22;3613;48.902;9.204;2024-02-16T00:05:19;9.10;99.90
7143;DHT22;3613;48.902;9.204;2024-02-16T00:07:45;9.10;99.90
7143;DHT22;3613;48.902;9.204;2024-02-16T00:10:17;9.10;99.90
7143;DHT22;3613;48.902;9.204;2024-02-16T00:12:47;9.10;99.90
7143;DHT22;3613;48.902;9.204;2024-02-16T00:15:12;9.10;99.90
7143;DHT22;3613;48.902;9.204;2024-02-16T00:17:38;9.30;99.90
7143;DHT22;3613;48.902;9.204;2024-02-16T00:20:04;9.30;99.90
7143;DHT22;3613;48.902;9.204;2024-02-16T00:22:34;9.20;99.90
7143;DHT22;3613;48.902;9.204;2024-02-16T00:25:00;9.20;99.90
7143;DHT22;3613;48.902;9.204;2024-02-16T00:27:26;9.20;99.90
7143;DHT22;3613;48.902;9.204;2024-02-16T00:29:52;9.10;99.90
7143;DHT22;3613;48.902;9.204;2024-02-16T00:32:17;9.10;99.90
7143;DHT22;3613;48.902;9.204;2024-02-16T00:34:45;9.80;99.90
7143;DHT22;3613;48.902;9.204;2024-02-16T00:37:13;9.20;99.90
7143;DHT22;3613;48.902;9.204;2024-02-16T00:39:43;9.20;99.90
7143;DHT22;3613;48.902;9.204;2024-02-16T00:42:09;9.20;99.90
7143;DHT22;3613;48.902;9.204;2024-02-16T00:44:38;9.20;99.90
7143;DHT22;3613;48.902;9.204;2024-02-16T00:47:06;9.10;99.90
7143;DHT22;3613;48.902;9.204;2024-02-16T00:49:32;9.10;99.90
7143;DHT22;3613;48.902;9.204;2024-02-16T00:51:59;9.10;99.90
7143;DHT22;3613;48.902;9.204;2024-02-16T00:54:24;9.10;99.90
7143;DHT22;3613;48.902;9.204;2024-02-16T00:56:50;9.10;99.90
7143;DHT22;3613;48.902;9.204;2024-02-16T00:59:16;9.10;99.90
7143;DHT22;3613;48.902;9.204;2024-02-16T01:01:45;9.10;99.90
7143;DHT22;3613;48.902;9.204;2024-02-16T01:04:10;9.10;99.90
7143;DHT22;3613;48.902;9.204;2024-02-16T01:06:36;9.10;99.90
7143;DHT22;3613;48.902;9.204;2024-02-16T01:09:02;9.20;99.90
7143;DHT22;3613;48.902;9.204;2024-02-16T01:11:28;9.20;99.90
7143;DHT22;3613;48.902;9.204;2024-02-16T01:13:59;9.20;99.90
7143;DHT22;3613;48.902;9.204;2024-02-16T01:16:24;9.20;99.90
7143;DHT22;3613;48.902;9.204;2024-02-16T01:18:50;9.20;99.90
7143;DHT22;3613;48.902;9.204;2024-02-16T01:21:18;9.20;99.90
7143;DHT22;3613;48.902;9.204;2024-02-16T01:23:43;9.20;99.90
7143;DHT22;3613;48.902;9.204;2024-02-16T01:26:12;9.20;99.90
7143;DHT22;3613;48.902;9.204;2024-02-16T01:28:39;9.30;99.90
7143;DHT22;3613;48.902;9.204;2024-02-16T01:31:07;9.20;99.90
7143;DHT22;3613;48.902;9.204;2024-02-16T01:33:35;9.20;99.90
7143;DHT22;3613;48.902;9.204;2024-02-16T01:36:02;10.80;99.90
7143;DHT22;3613;48.902;9.204;2024-02-16T01:38:28;9.20;99.90
7143;DHT22;3613;48.902;9.204;2024-02-16T01:40:55;9.20;99.90
7143;DHT22;3613;48.902;9.204;2024-02-16T01:43:21;9.20;99.90
7143;DHT22;3613;48.902;9.204;2024-02-16T01:45:47;9.20;99.90
7143;DHT22;3613;48.902;9.204;2024-02-16T01:48:14;9.20;99.90
7143;DHT22;3613;48.902;9.204;2024-02-16T01:50:43;9.30;99.90
7143;DHT22;3613;48.902;9.204;2024-02-16T01:53:09;9.30;99.90
7143;DHT22;3613;48.902;9.204;2024-02-16T01:55:37;9.20;99.90
7143;DHT22;3613;48.902;9.204;2024-02-16T01:58:03;9.20;99.90
7143;DHT22;3613;48.902;9.204;2024-02-16T02:00:29;9.20;99.90
7143;DHT22;3613;48.902;9.204;2024-02-16T02:02:55;9.20;99.90
7143;DHT22;3613;48.902;9.204;2024-02-16T02:05:25;9.20;99.90
7143;DHT22;3613;48.902;9.204;2024-02-16T02:07:50;9.20;99.90
7143;DHT22;3613;48.902;9.204;2024-02-16T02:10:16;9.20;99.90
7143;DHT22;3613;48.902;9.204;2024-02-16T02:12:44;9.20;99.90
7143;DHT22;3613;48.902;9.204;2024-02-16T02:15:10;9.20;99.90
7143;DHT22;3613;48.902;9.204;2024-02-16T02:17:39;9.20;99.90
7143;DHT22;3613;48.902;9.204;2024-02-16T02:20:07;9.20;99.90
7143;DHT22;3613;48.902;9.204;2024-02-16T02:22:39;9.20;99.90
7143;DHT22;3613;48.902;9.204;2024-02-16T02:25:05;9.20;99.90
7143;DHT22;3613;48.902;9.204;2024-02-16T02:27:33;9.10;99.90
7143;DHT22;3613;48.902;9.204;2024-02-16T02:29:58;9.10;99.90
7143;DHT22;3613;48.902;9.204;2024-02-16T02:32:26;9.20;99.90
7143;DHT22;3613;48.902;9.204;2024-02-16T02:34:52;9.20;99.90
7143;DHT22;3613;48.902;9.204;2024-02-16T02:37:18;9.20;99.90
7143;DHT22;3613;48.902;9.204;2024-02-16T02:39:43;9.10;99.90
7143;DHT22;3613;48.902;9.204;2024-02-16T02:42:09;9.10;99.90
7143;DHT22;3613;48.902;9.204;2024-02-16T02:44:38;9.20;99.90
7143;DHT22;3613;48.902;9.204;2024-02-16T02:47:08;9.20;99.90
7143;DHT22;3613;48.902;9.204;2024-02-16T02:49:36;9.10;99.90
7143;DHT22;3613;48.902;9.204;2024-02-16T02:52:04;9.20;99.90
7143;DHT22;3613;48.902;9.204;2024-02-16T02:54:32;9.20;99.90
7143;DHT22;3613;48.902;9.204;2024-02-16T02:56:57;9.10;99.90
7143;DHT22;3613;48.902;9.204;2024-02-16T02:59:23;9.10;99.90
7143;DHT22;3613;48.902;9.204;2024-02-16T03:01:49;9.10;99.90
7143;DHT22;3613;48.902;9.204;2024-02-16T03:04:14;9.10;99.90
7143;DHT22;3613;48.902;9.204;2024-02-16T03:06:40;9.10;99.90
7143;DHT22;3613;48.902;9.204;2024-02-16T03:09:07;9.10;99.90
7143;DHT22;3613;48.902;9.204;2024-02-16T03:11:33;9.00;99.90
7143;DHT22;3613;48.902;9.204;2024-02-16T03:13:59;9.10;99.90
7143;DHT22;3613;48.902;9.204;2024-02-16T03:16:24;9.00;99.90
7143;DHT22;3613;48.902;9.204;2024-02-16T03:18:50;9.00;99.90
7143;DHT22;3613;48.902;9.204;2024-02-16T03:21:15;9.00;99.90
7143;DHT22;3613;48.902;9.204;2024-02-16T03:23:46;9.00;99.90
7143;DHT22;3613;48.902;9.204;2024-02-16T03:26:16;9.00;99.90
7143;DHT22;3613;48.902;9.204;2024-02-16T03:28:44;8.90;99.90
7143;DHT22;3613;48.902;9.204;2024-02-16T03:31:19;8.90;99.90
7143;DHT22;3613;48.902;9.204;2024-02-16T03:33:47;8.90;99.90
7143;DHT22;3613;48.902;9.204;2024-02-16T03:36:17;9.10;99.90
7143;DHT22;3613;48.902;9.204;2024-02-16T03:38:46;9.70;99.90
7143;DHT22;3613;48.902;9.204;2024-02-16T03:41:18;8.80;99.90
7143;DHT22;3613;48.902;9.204;2024-02-16T03:43:44;8.70;99.90
7143;DHT22;3613;48.902;9.204;2024-02-16T03:46:12;8.80;99.90
7143;DHT22;3613;48.902;9.204;2024-02-16T03:48:39;8.70;99.90
7143;DHT22;3613;48.902;9.204;2024-02-16T03:51:07;8.60;99.90
7143;DHT22;3613;48.902;9.204;2024-02-16T03:53:32;8.60;99.90
7143;DHT22;3613;48.902;9.204;2024-02-16T03:55:58;8.70;99.90
7143;DHT22;3613;48.902;9.204;2024-02-16T03:58:24;8.50;99.90
7143;DHT22;3613;48.902;9.204;2024-02-16T04:00:50;8.70;99.90
7143;DHT22;3613;48.902;9.204;2024-02-16T04:03:16;8.60;99.90
7143;DHT22;3613;48.902;9.204;2024-02-16T04:05:42;8.50;99.90
7143;DHT22;3613;48.902;9.204;2024-02-16T04:08:10;8.50;99.90
7143;DHT22;3613;48.902;9.204;2024-02-16T04:10:38;8.40;99.90
7143;DHT22;3613;48.902;9.204;2024-02-16T04:13:06;8.50;99.90
7143;DHT22;3613;48.902;9.204;2024-02-16T04:15:31;8.40;99.90
7143;DHT22;3613;48.902;9.204;2024-02-16T04:17:57;10.60;99.90
7143;DHT22;3613;48.902;9.204;2024-02-16T04:20:25;8.60;99.90
7143;DHT22;3613;48.902;9.204;2024-02-16T04:22:51;8.50;99.90
7143;DHT22;3613;48.902;9.204;2024-02-16T04:25:16;8.60;99.90
7143;DHT22;3613;48.902;9.204;2024-02-16T04:27:44;8.60;99.90
7143;DHT22;3613;48.902;9.204;2024-02-16T04:30:10;8.60;99.90
7143;DHT22;3613;48.902;9.204;2024-02-16T04:32:38;8.70;99.90
7143;DHT22;3613;48.902;9.204;2024-02-16T04:35:04;8.80;99.90
7143;DHT22;3613;48.902;9.204;2024-02-16T04:37:30;8.80;99.90
7143;DHT22;3613;48.902;9.204;2024-02-16T04:39:55;8.80;99.90
7143;DHT22;3613;48.902;9.204;2024-02-16T04:42:21;8.90;99.90
7143;DHT22;3613;48.902;9.204;2024-02-16T04:44:47;8.80;99.90
7143;DHT22;3613;48.902;9.204;2024-02-16T04:47:14;8.80;99.90
7143;DHT22;3613;48.902;9.204;2024-02-16T04:49:42;8.80;99.90
7143;DHT22;3613;48.902;9.204;2024-02-16T04:52:10;8.90;99.90
7143;DHT22;3613;48.902;9.204;2024-02-16T04:54:35;9.00;99.90
7143;DHT22;3613;48.902;9.204;2024-02-16T04:57:01;9.00;99.90
7143;DHT22;3613;48.902;9.204;2024-02-16T04:59:27;9.10;99.90
7143;DHT22;3613;48.902;9.204;2024-02-16T05:01:53;9.10;99.90
7143;DHT22;3613;48.902;9.204;2024-02-16T05:04:18;9.00;99.90
7143;DHT22;3613;48.902;9.204;2024-02-16T05:06:44;9.00;99.90
7143;DHT22;3613;48.902;9.204;2024-02-16T05:09:13;9.10;99.90
7143;DHT22;3613;48.902;9.204;2024-02-16T05:11:45;9.00;99.90
7143;DHT22;3613;48.902;9.204;2024-02-16T05:14:11;9.00;99.90
7143;DHT22;3613;48.902;9.204;2024-02-16T05:16:44;9.00;99.90
7143;DHT22;3613;48.902;9.204;2024-02-16T05:19:12;8.90;99.90
7143;DHT22;3613;48.902;9.204;2024-02-16T05:21:37;8.90;99.90
7143;DHT22;3613;48.902;9.204;2024-02-16T05:24:06;8.90;99.90
7143;DHT22;3613;48.902;9.204;2024-02-16T05:26:31;8.80;99.90
7143;DHT22;3613;48.902;9.204;2024-02-16T05:28:59;8.80;99.90
7143;DHT22;3613;48.902;9.204;2024-02-16T05:31:25;8.80;99.90
7143;DHT22;3613;48.902;9.204;2024-02-16T05:33:51;8.80;99.90
7143;DHT22;3613;48.902;9.204;2024-02-16T05:36:20;8.70;99.90
7143;DHT22;3613;48.902;9.204;2024-02-16T05:38:50;8.70;99.90
7143;DHT22;3613;48.902;9.204;2024-02-16T05:41:21;8.70;99.90
7143;DHT22;3613;48.902;9.204;2024-02-16T05:43:49;8.70;99.90
7143;DHT22;3613;48.902;9.204;2024-02-16T05:46:17;8.60;99.90
7143;DHT22;3613;48.902;9.204;2024-02-16T05:48:43;8.60;99.90
7143;DHT22;3613;48.902;9.204;2024-02-16T05:51:09;8.50;99.90
7143;DHT22;3613;48.902;9.204;2024-02-16T05:53:38;8.60;99.90
7143;DHT22;3613;48.902;9.204;2024-02-16T05:56:06;8.40;99.90
7143;DHT22;3613;48.902;9.204;2024-02-16T05:58:32;8.50;99.90
7143;DHT22;3613;48.902;9.204;2024-02-16T06:00:59;8.40;99.90
7143;DHT22;3613;48.902;9.204;2024-02-16T06:03:24;8.30;99.90
7143;DHT22;3613;48.902;9.204;2024-02-16T06:05:50;8.40;99.90
7143;DHT22;3613;48.902;9.204;2024-02-16T06:08:15;8.20;99.90
7143;DHT22;3613;48.902;9.204;2024-02-16T06:10:43;8.20;99.90
7143;DHT22;3613;48.902;9.204;2024-02-16T06:13:11;8.20;99.90
7143;DHT22;3613;48.902;9.204;2024-02-16T06:15:39;8.20;99.90
7143;DHT22;3613;48.902;9.204;2024-02-16T06:18:07;8.20;99.90
7143;DHT22;3613;48.902;9.204;2024-02-16T06:20:37;8.20;99.90
7143;DHT22;3613;48.902;9.204;2024-02-16T06:23:02;8.10;99.90
7143;DHT22;3613;48.902;9.204;2024-02-16T06:25:28;8.10;99.90
7143;DHT22;3613;48.902;9.204;2024-02-16T06:27:54;8.10;99.90
7143;DHT22;3613;48.902;9.204;2024-02-16T06:30:19;8.30;99.90
7143;DHT22;3613;48.902;9.204;2024-02-16T06:32:45;8.30;99.90
7143;DHT22;3613;48.902;9.204;2024-02-16T06:35:13;8.20;99.90
7143;DHT22;3613;48.902;9.204;2024-02-16T06:37:39;8.30;99.90
7143;DHT22;3613;48.902;9.204;2024-02-16T06:40:06;8.30;99.90
7143;DHT22;3613;48.902;9.204;2024-02-16T06:42:35;8.30;99.90
7143;DHT22;3613;48.902;9.204;2024-02-16T06:45:01;8.30;99.90
7143;DHT22;3613;48.902;9.204;2024-02-16T06:47:31;8.40;99.90
7143;DHT22;3613;48.902;9.204;2024-02-16T06:49:57;8.40;99.90
7143;DHT22;3613;48.902;9.204;2024-02-16T06:52:25;8.40;99.90
7143;DHT22;3613;48.902;9.204;2024-02-16T06:54:51;8.50;99.90
7143;DHT22;3613;48.902;9.204;2024-02-16T06:57:17;8.40;99.90
7143;DHT22;3613;48.902;9.204;2024-02-16T06:59:45;8.50;99.90
7143;DHT22;3613;48.902;9.204;2024-02-16T07:02:10;8.50;99.90
7143;DHT22;3613;48.902;9.204;2024-02-16T07:04:39;8.50;99.90
7143;DHT22;3613;48.902;9.204;2024-02-16T07:07:04;8.50;99.90
7143;DHT22;3613;48.902;9.204;2024-02-16T07:09:32;8.60;99.90
7143;DHT22;3613;48.902;9.204;2024-02-16T07:11:57;8.60;99.90
7143;DHT22;3613;48.902;9.204;2024-02-16T07:14:24;8.70;99.90
7143;DHT22;3613;48.902;9.204;2024-02-16T07:16:50;8.70;99.90
7143;DHT22;3613;48.902;9.204;2024-02-16T07:19:15;10.80;99.90
7143;DHT22;3613;48.902;9.204;2024-02-16T07:21:44;8.80;99.90
7143;DHT22;3613;48.902;9.204;2024-02-16T07:24:10;8.90;99.90
7143;DHT22;3613;48.902;9.204;2024-02-16T07:26:38;9.10;99.90
7143;DHT22;3613;48.902;9.204;2024-02-16T07:29:08;9.00;99.90
7143;DHT22;3613;48.902;9.204;2024-02-16T07:31:36;9.10;99.90
7143;DHT22;3613;48.902;9.204;2024-02-16T07:34:02;9.10;99.90
7143;DHT22;3613;48.902;9.204;2024-02-16T07:36:29;9.10;99.90
7143;DHT22;3613;48.902;9.204;2024-02-16T07:38:54;9.20;99.90
7143;DHT22;3613;48.902;9.204;2024-02-16T07:41:20;9.20;99.90
7143;DHT22;3613;48.902;9.204;2024-02-16T07:43:46;9.10;99.90
7143;DHT22;3613;48.902;9.204;2024-02-16T07:46:11;9.20;99.90
7143;DHT22;3613;48.902;9.204;2024-02-16T07:48:40;9.20;99.90
7143;DHT22;3613;48.902;9.204;2024-02-16T07:51:06;9.20;99.90
7143;DHT22;3613;48.902;9.204;2024-02-16T07:53:33;9.30;99.90
7143;DHT22;3613;48.902;9.204;2024-02-16T07:55:59;9.40;99.90
7143;DHT22;3613;48.902;9.204;2024-02-16T07:58:29;9.40;99.90
7143;DHT22;3613;48.902;9.204;2024-02-16T08:00:55;9.40;99.90
7143;DHT22;3613;48.902;9.204;2024-02-16T08:03:20;9.50;99.90
7143;DHT22;3613;48.902;9.204;2024-02-16T08:05:46;9.60;99.90
7143;DHT22;3613;48.902;9.204;2024-02-16T08:08:12;10.00;99.90
7143;DHT22;3613;48.902;9.204;2024-02-16T08:10:37;10.00;99.90
7143;DHT22;3613;48.902;9.204;2024-02-16T08:13:03;10.30;99.90
7143;DHT22;3613;48.902;9.204;2024-02-16T08:15:33;10.50;99.90
7143;DHT22;3613;48.902;9.204;2024-02-16T08:17:58;10.90;99.90
7143;DHT22;3613;48.902;9.204;2024-02-16T08:20:24;11.40;99.90
7143;DHT22;3613;48.902;9.204;2024-02-16T08:22:50;11.90;99.90
7143;DHT22;3613;48.902;9.204;2024-02-16T08:25:15;12.30;99.90
7143;DHT22;3613;48.902;9.204;2024-02-16T08:27:41;13.00;99.90
7143;DHT22;3613;48.902;9.204;2024-02-16T08:30:07;13.90;99.90
7143;DHT22;3613;48.902;9.204;2024-02-16T08:32:34;14.70;99.90
7143;DHT22;3613;48.902;9.204;2024-02-16T08:35:00;15.20;99.90
7143;DHT22;3613;48.902;9.204;2024-02-16T08:37:25;15.50;99.90
7143;DHT22;3613;48.902;9.204;2024-02-16T08:39:52;15.70;99.90
7143;DHT22;3613;48.902;9.204;2024-02-16T08:42:18;15.60;99.90
7143;DHT22;3613;48.902;9.204;2024-02-16T08:44:46;15.50;99.90
7143;DHT22;3613;48.902;9.204;2024-02-16T08:47:12;15.40;99.90
7143;DHT22;3613;48.902;9.204;2024-02-16T08:49:40;15.30;99.90
7143;DHT22;3613;48.902;9.204;2024-02-16T08:52:07;15.60;99.90
7143;DHT22;3613;48.902;9.204;2024-02-16T08:54:33;15.90;99.90
7143;DHT22;3613;48.902;9.204;2024-02-16T08:56:59;16.10;99.90
7143;DHT22;3613;48.902;9.204;2024-02-16T08:59:25;16.40;99.90
7143;DHT22;3613;48.902;9.204;2024-02-16T09:01:54;16.90;99.90
7143;DHT22;3613;48.902;9.204;2024-02-16T09:04:20;16.90;99.90
7143;DHT22;3613;48.902;9.204;2024-02-16T09:06:45;16.80;99.90
7143;DHT22;3613;48.902;9.204;2024-02-16T09:09:11;17.30;99.90
7143;DHT22;3613;48.902;9.204;2024-02-16T09:11:37;18.10;99.90
7143;DHT22;3613;48.902;9.204;2024-02-16T09:14:02;18.40;99.90
7143;DHT22;3613;48.902;9.204;2024-02-16T09:16:28;18.50;99.90
7143;DHT22;3613;48.902;9.204;2024-02-16T09:18:54;18.70;99.90
7143;DHT22;3613;48.902;9.204;2024-02-16T09:21:20;18.90;99.90
7143;DHT22;3613;48.902;9.204;2024-02-16T09:23:45;18.70;99.90
7143;DHT22;3613;48.902;9.204;2024-02-16T09:26:13;18.50;99.90
7143;DHT22;3613;48.902;9.204;2024-02-16T09:28:41;18.30;99.90
7143;DHT22;3613;48.902;9.204;2024-02-16T09:31:07;18.20;99.90
7143;DHT22;3613;48.902;9.204;2024-02-16T09:33:36;18.30;99.90
7143;DHT22;3613;48.902;9.204;2024-02-16T09:36:01;18.40;99.90
7143;DHT22;3613;48.902;9.204;2024-02-16T09:38:29;18.40;99.90
7143;DHT22;3613;48.902;9.204;2024-02-16T09:40:55;18.50;99.90
7143;DHT22;3613;48.902;9.204;2024-02-16T09:43:29;18.10;99.90
7143;DHT22;3613;48.902;9.204;2024-02-16T09:46:01;18.00;99.90
7143;DHT22;3613;48.902;9.204;2024-02-16T09:48:27;18.00;99.90
7143;DHT22;3613;48.902;9.204;2024-02-16T09:50:56;18.20;99.90
7143;DHT22;3613;48.902;9.204;2024-02-16T09:53:26;18.30;99.90
7143;DHT22;3613;48.902;9.204;2024-02-16T09:55:52;18.40;99.90
7143;DHT22;3613;48.902;9.204;2024-02-16T09:58:19;18.50;99.90
7143;DHT22;3613;48.902;9.204;2024-02-16T10:00:52;18.60;99.90
7143;DHT22;3613;48.902;9.204;2024-02-16T10:03:29;18.60;99.90
7143;DHT22;3613;48.902;9.204;2024-02-16T10:06:09;18.50;99.90
7143;DHT22;3613;48.902;9.204;2024-02-16T10:08:55;18.70;99.90
7143;DHT22;3613;48.902;9.204;2024-02-16T10:11:24;18.90;99.90
7143;DHT22;3613;48.902;9.204;2024-02-16T10:14:00;19.10;99.90
7143;DHT22;3613;48.902;9.204;2024-02-16T10:16:27;19.20;99.90
7143;DHT22;3613;48.902;9.204;2024-02-16T10:19:07;19.40;99.90
7143;DHT22;3613;48.902;9.204;2024-02-16T10:21:35;19.50;99.90
7143;DHT22;3613;48.902;9.204;2024-02-16T10:24:08;19.70;99.90
7143;DHT22;3613;48.902;9.204;2024-02-16T10:26:35;19.90;99.90
7143;DHT22;3613;48.902;9.204;2024-02-16T10:29:09;20.10;99.90
7143;DHT22;3613;48.902;9.204;2024-02-16T10:31:38;20.40;99.90
7143;DHT22;3613;48.902;9.204;2024-02-16T10:34:06;20.80;99.90
7143;DHT22;3613;48.902;9.204;2024-02-16T10:36:33;20.80;99.90
7143;DHT22;3613;48.902;9.204;2024-02-16T10:39:00;20.70;99.90
7143;DHT22;3613;48.902;9.204;2024-02-16T10:41:35;20.30;99.90
7143;DHT22;3613;48.902;9.204;2024-02-16T10:44:03;20.20;99.90
7143;DHT22;3613;48.902;9.204;2024-02-16T10:46:29;19.90;99.90
7143;DHT22;3613;48.902;9.204;2024-02-16T10:48:55;19.60;99.90
7143;DHT22;3613;48.902;9.204;2024-02-16T10:54:01;18.80;99.90
7143;DHT22;3613;48.902;9.204;2024-02-16T10:56:37;18.60;99.90
7143;DHT22;3613;48.902;9.204;2024-02-16T10:59:10;18.40;99.90
7143;DHT22;3613;48.902;9.204;2024-02-16T11:04:06;17.90;99.90
7143;DHT22;3613;48.902;9.204;2024-02-16T11:06:53;17.90;99.90
7143;DHT22;3613;48.902;9.204;2024-02-16T11:09:38;17.80;99.90
7143;DHT22;3613;48.902;9.204;2024-02-16T11:12:06;17.70;99.90
7143;DHT22;3613;48.902;9.204;2024-02-16T11:14:49;17.70;99.90
7143;DHT22;3613;48.902;9.204;2024-02-16T11:17:22;17.80;99.90
7143;DHT22;3613;48.902;9.204;2024-02-16T11:19:49;17.80;99.90
7143;DHT22;3613;48.902;9.204;2024-02-16T11:22:18;17.70;99.90
7143;DHT22;3613;48.902;9.204;2024-02-16T11:24:46;17.80;99.90
7143;DHT22;3613;48.902;9.204;2024-02-16T11:27:12;17.90;99.90
7143;DHT22;3613;48.902;9.204;2024-02-16T11:29:38;17.90;99.90
7143;DHT22;3613;48.902;9.204;2024-02-16T11:32:08;18.00;99.90
7143;DHT22;3613;48.902;9.204;2024-02-16T11:34:34;18.30;99.90
7143;DHT22;3613;48.902;9.204;2024-02-16T11:37:02;18.70;99.90
7143;DHT22;3613;48.902;9.204;2024-02-16T11:39:28;18.80;99.90
7143;DHT22;3613;48.902;9.204;2024-02-16T11:44:29;19.00;99.90
7143;DHT22;3613;48.902;9.204;2024-02-16T11:46:55;19.20;99.90
7143;DHT22;3613;48.902;9.204;2024-02-16T11:49:24;19.30;99.90
7143;DHT22;3613;48.902;9.204;2024-02-16T11:51:52;19.10;99.90
7143;DHT22;3613;48.902;9.204;2024-02-16T11:54:18;18.90;99.90
7143;DHT22;3613;48.902;9.204;2024-02-16T11:56:44;18.60;99.90
7143;DHT22;3613;48.902;9.204;2024-02-16T11:59:17;18.50;99.90
7143;DHT22;3613;48.902;9.204;2024-02-16T12:01:56;18.30;99.90
7143;DHT22;3613;48.902;9.204;2024-02-16T12:04:29;18.10;99.90
7143;DHT22;3613;48.902;9.204;2024-02-16T12:07:01;18.10;99.90
7143;DHT22;3613;48.902;9.204;2024-02-16T12:09:27;18.10;99.90
7143;DHT22;3613;48.902;9.204;2024-02-16T12:11:54;18.10;99.90
7143;DHT22;3613;48.902;9.204;2024-02-16T12:14:24;18.00;99.90
7143;DHT22;3613;48.902;9.204;2024-02-16T12:16:58;18.00;99.90
7143;DHT22;3613;48.902;9.204;2024-02-16T12:19:25;17.90;99.90
7143;DHT22;3613;48.902;9.204;2024-02-16T12:21:57;17.90;99.90
7143;DHT22;3613;48.902;9.204;2024-02-16T12:24:24;17.70;99.90
7143;DHT22;3613;48.902;9.204;2024-02-16T12:26:49;17.80;99.90
7143;DHT22;3613;48.902;9.204;2024-02-16T12:29:18;18.00;99.90
7143;DHT22;3613;48.902;9.204;2024-02-16T12:31:46;18.00;99.90
7143;DHT22;3613;48.902;9.204;2024-02-16T12:34:14;18.00;99.90
7143;DHT22;3613;48.902;9.204;2024-02-16T12:36:42;18.00;99.90
7143;DHT22;3613;48.902;9.204;2024-02-16T12:39:08;18.10;99.90
7143;DHT22;3613;48.902;9.204;2024-02-16T12:41:37;18.00;99.90
7143;DHT22;3613;48.902;9.204;2024-02-16T12:44:04;18.00;99.90
7143;DHT22;3613;48.902;9.204;2024-02-16T12:46:32;18.10;99.90
7143;DHT22;3613;48.902;9.204;2024-02-16T12:48:57;18.20;99.90
7143;DHT22;3613;48.902;9.204;2024-02-16T12:51:26;18.10;99.90
7143;DHT22;3613;48.902;9.204;2024-02-16T12:53:51;18.10;99.90
7143;DHT22;3613;48.902;9.204;2024-02-16T12:56:22;18.10;99.90
7143;DHT22;3613;48.902;9.204;2024-02-16T12:58:51;17.90;99.90
7143;DHT22;3613;48.902;9.204;2024-02-16T13:01:17;17.90;99.90
7143;DHT22;3613;48.902;9.204;2024-02-16T13:03:43;17.90;99.90
7143;DHT22;3613;48.902;9.204;2024-02-16T13:06:09;17.90;99.90
7143;DHT22;3613;48.902;9.204;2024-02-16T13:08:35;17.90;99.90
7143;DHT22;3613;48.902;9.204;2024-02-16T13:11:05;17.90;99.90
7143;DHT22;3613;48.902;9.204;2024-02-16T13:13:33;18.10;99.90
7143;DHT22;3613;48.902;9.204;2024-02-16T13:15:59;18.10;99.90
7143;DHT22;3613;48.902;9.204;2024-02-16T13:18:25;18.10;99.90
7143;DHT22;3613;48.902;9.204;2024-02-16T13:20:55;18.20;99.90
7143;DHT22;3613;48.902;9.204;2024-02-16T13:23:20;18.30;99.90
7143;DHT22;3613;48.902;9.204;2024-02-16T13:25:47;18.50;99.90
7143;DHT22;3613;48.902;9.204;2024-02-16T13:28:12;18.60;99.90
7143;DHT22;3613;48.902;9.204;2024-02-16T13:30:44;18.60;99.90
7143;DHT22;3613;48.902;9.204;2024-02-16T13:33:10;18.70;99.90
7143;DHT22;3613;48.902;9.204;2024-02-16T13:35:35;18.70;99.90
7143;DHT22;3613;48.902;9.204;2024-02-16T13:38:04;18.80;99.90
7143;DHT22;3613;48.902;9.204;2024-02-16T13:40:30;18.90;99.90
7143;DHT22;3613;48.902;9.204;2024-02-16T13:42:55;18.80;99.90
7143;DHT22;3613;48.902;9.204;2024-02-16T13:45:27;18.70;99.90
7143;DHT22;3613;48.902;9.204;2024-02-16T13:47:53;18.70;99.90
7143;DHT22;3613;48.902;9.204;2024-02-16T13:50:21;18.80;99.90
7143;DHT22;3613;48.902;9.204;2024-02-16T13:52:48;18.80;99.90
7143;DHT22;3613;48.902;9.204;2024-02-16T13:55:15;18.70;99.90
7143;DHT22;3613;48.902;9.204;2024-02-16T13:57:40;18.60;99.90
7143;DHT22;3613;48.902;9.204;2024-02-16T14:00:07;18.50;99.90
7143;DHT22;3613;48.902;9.204;2024-02-16T14:02:32;18.40;99.90
7143;DHT22;3613;48.902;9.204;2024-02-16T14:04:58;20.10;99.90
7143;DHT22;3613;48.902;9.204;2024-02-16T14:07:26;18.10;99.90
7143;DHT22;3613;48.902;9.204;2024-02-16T14:09:52;18.00;99.90
7143;DHT22;3613;48.902;9.204;2024-02-16T14:12:17;18.00;99.90
7143;DHT22;3613;48.902;9.204;2024-02-16T14:14:43;17.80;99.90
7143;DHT22;3613;48.902;9.204;2024-02-16T14:17:08;17.70;99.90
7143;DHT22;3613;48.902;9.204;2024-02-16T14:19:34;17.60;99.90
7143;DHT22;3613;48.902;9.204;2024-02-16T14:22:03;17.50;99.90
7143;DHT22;3613;48.902;9.204;2024-02-16T14:24:32;17.40;99.90
7143;DHT22;3613;48.902;9.204;2024-02-16T14:26:57;17.30;99.90
7143;DHT22;3613;48.902;9.204;2024-02-16T14:29:25;17.20;99.90
7143;DHT22;3613;48.902;9.204;2024-02-16T14:31:50;16.20;99.90
7143;DHT22;3613;48.902;9.204;2024-02-16T14:34:16;17.20;99.90
7143;DHT22;3613;48.902;9.204;2024-02-16T14:36:44;17.10;99.90
7143;DHT22;3613;48.902;9.204;2024-02-16T14:39:09;17.10;99.90
7143;DHT22;3613;48.902;9.204;2024-02-16T14:41:37;17.10;99.90
7143;DHT22;3613;48.902;9.204;2024-02-16T14:44:02;17.10;99.90
7143;DHT22;3613;48.902;9.204;2024-02-16T14:46:28;17.10;99.90
7143;DHT22;3613;48.902;9.204;2024-02-16T14:48:54;17.00;99.90
7143;DHT22;3613;48.902;9.204;2024-02-16T14:51:19;17.00;99.90
7143;DHT22;3613;48.902;9.204;2024-02-16T14:53:46;16.90;99.90
7143;DHT22;3613;48.902;9.204;2024-02-16T14:56:11;17.00;99.90
7143;DHT22;3613;48.902;9.204;2024-02-16T14:58:37;16.90;99.90
7143;DHT22;3613;48.902;9.204;2024-02-16T15:01:02;16.90;99.90
7143;DHT22;3613;48.902;9.204;2024-02-16T15:03:29;16.80;99.90
7143;DHT22;3613;48.902;9.204;2024-02-16T15:05:56;16.80;99.90
7143;DHT22;3613;48.902;9.204;2024-02-16T15:08:21;16.80;99.90
7143;DHT22;3613;48.902;9.204;2024-02-16T15:10:47;16.70;99.90
7143;DHT22;3613;48.902;9.204;2024-02-16T15:13:16;16.70;99.90
7143;DHT22;3613;48.902;9.204;2024-02-16T15:15:41;16.60;99.90
7143;DHT22;3613;48.902;9.204;2024-02-16T15:18:07;16.50;99.90
7143;DHT22;3613;48.902;9.204;2024-02-16T15:20:32;16.60;99.90
7143;DHT22;3613;48.902;9.204;2024-02-16T15:23:00;16.40;99.90
7143;DHT22;3613;48.902;9.204;2024-02-16T15:25:26;16.40;99.90
7143;DHT22;3613;48.902;9.204;2024-02-16T15:27:51;16.40;99.90
7143;DHT22;3613;48.902;9.204;2024-02-16T15:30:23;16.40;99.90
7143;DHT22;3613;48.902;9.204;2024-02-16T15:32:51;16.40;99.90
7143;DHT22;3613;48.902;9.204;2024-02-16T15:35:17;16.30;99.90
7143;DHT22;3613;48.902;9.204;2024-02-16T15:37:42;16.20;99.90
7143;DHT22;3613;48.902;9.204;2024-02-16T15:40:08;16.20;99.90
7143;DHT22;3613;48.902;9.204;2024-02-16T15:42:39;16.20;99.90
7143;DHT22;3613;48.902;9.204;2024-02-16T15:45:07;15.30;99.90
7143;DHT22;3613;48.902;9.204;2024-02-16T15:47:33;16.10;99.90
7143;DHT22;3613;48.902;9.204;2024-02-16T15:49:58;16.00;99.90
7143;DHT22;3613;48.902;9.204;2024-02-16T15:52:24;16.00;99.90
7143;DHT22;3613;48.902;9.204;2024-02-16T15:54:54;16.00;99.90
7143;DHT22;3613;48.902;9.204;2024-02-16T15:57:20;15.90;99.90
7143;DHT22;3613;48.902;9.204;2024-02-16T15:59:46;15.80;99.90
7143;DHT22;3613;48.902;9.204;2024-02-16T16:02:12;15.80;99.90
7143;DHT22;3613;48.902;9.204;2024-02-16T16:04:40;15.60;99.90
7143;DHT22;3613;48.902;9.204;2024-02-16T16:07:08;15.60;99.90
7143;DHT22;3613;48.902;9.204;2024-02-16T16:09:39;15.60;99.90
7143;DHT22;3613;48.902;9.204;2024-02-16T16:12:04;15.50;99.90
7143;DHT22;3613;48.902;9.204;2024-02-16T16:14:36;15.50;99.90
7143;DHT22;3613;48.902;9.204;2024-02-16T16:17:04;15.40;99.90